sensor_id;sensor_type;location;lat;lon;timestamp;pressure;altitude;pressure_sealevel;temperature;humidity
6938;BME280;40040;42.706;23.372;2022-12-31T00:00:39;145177.44;;;4.03;100.00
6938;BME280;40040;42.706;23.372;2022-12-31T00:03:08;145096.44;;;3.70;100.00
6938;BME280;40040;42.706;23.372;2022-12-31T00:05:35;145145.56;;;3.90;100.00
6938;BME280;40040;42.706;23.372;2022-12-31T00:08:04;145146.75;;;3.91;100.00
6938;BME280;40040;42.706;23.372;2022-12-31T00:10:31;145150.47;;;3.92;100.00
6938;BME280;40040;42.706;23.372;2022-12-31T00:13:04;145128.38;;;3.83;100.00
6938;BME280;40040;42.706;23.372;2022-12-31T00:15:31;145140.63;;;3.88;100.00
6938;BME280;40040;42.706;23.372;2022-12-31T00:17:57;145091.53;;;3.68;100.00
6938;BME280;40040;42.706;23.372;2022-12-31T00:20:24;145140.63;;;3.88;100.00
6938;BME280;40040;42.706;23.372;2022-12-31T00:22:51;145143.06;;;3.89;100.00
6938;BME280;40040;42.706;23.372;2022-12-31T00:25:19;145165.16;;;3.98;100.00
6938;BME280;40040;42.706;23.372;2022-12-31T00:27:46;145162.72;;;3.97;100.00
6938;BME280;40040;42.706;23.372;2022-12-31T00:30:13;145157.81;;;3.95;100.00
6938;BME280;40040;42.706;23.372;2022-12-31T00:32:40;145150.47;;;3.92;100.00
6938;BME280;40040;42.706;23.372;2022-12-31T00:35:07;145123.47;;;3.81;100.00
6938;BME280;40040;42.706;23.372;2022-12-31T00:37:34;145162.72;;;3.97;100.00
6938;BME280;40040;42.706;23.372;2022-12-31T00:40:01;145147.97;;;3.91;100.00
6938;BME280;40040;42.706;23.372;2022-12-31T00:42:29;145138.16;;;3.87;100.00
6938;BME280;40040;42.706;23.372;2022-12-31T00:44:56;145138.16;;;3.87;100.00
6938;BME280;40040;42.706;23.372;2022-12-31T00:47:23;145129.56;;;3.84;100.00
6938;BME280;40040;42.706;23.372;2022-12-31T00:49:50;145116.09;;;3.78;100.00
6938;BME280;40040;42.706;23.372;2022-12-31T00:52:17;145098.94;;;3.71;100.00
6938;BME280;40040;42.706;23.372;2022-12-31T00:54:44;145106.28;;;3.74;100.00
6938;BME280;40040;42.706;23.372;2022-12-31T00:57:11;145091.53;;;3.68;100.00
6938;BME280;40040;42.706;23.372;2022-12-31T00:59:39;145011.81;;;3.35;100.00
6938;BME280;40040;42.706;23.372;2022-12-31T01:02:06;145094.03;;;3.69;100.00
6938;BME280;40040;42.706;23.372;2022-12-31T01:04:33;145079.28;;;3.63;100.00
6938;BME280;40040;42.706;23.372;2022-12-31T01:06:59;145057.19;;;3.54;100.00
6938;BME280;40040;42.706;23.372;2022-12-31T01:09:26;145095.22;;;3.70;100.00
6938;BME280;40040;42.706;23.372;2022-12-31T01:11:53;145125.88;;;3.82;100.00
6938;BME280;40040;42.706;23.372;2022-12-31T01:14:21;145106.28;;;3.74;100.00
6938;BME280;40040;42.706;23.372;2022-12-31T01:16:50;145051.06;;;3.52;100.00
6938;BME280;40040;42.706;23.372;2022-12-31T01:19:20;145064.56;;;3.57;100.00
6938;BME280;40040;42.706;23.372;2022-12-31T01:21:48;145103.78;;;3.73;100.00
6938;BME280;40040;42.706;23.372;2022-12-31T01:24:16;145071.94;;;3.60;100.00
6938;BME280;40040;42.706;23.372;2022-12-31T01:26:43;145067.00;;;3.58;100.00
6938;BME280;40040;42.706;23.372;2022-12-31T01:29:11;145079.28;;;3.63;100.00
6938;BME280;40040;42.706;23.372;2022-12-31T01:31:38;145082.94;;;3.65;100.00
6938;BME280;40040;42.706;23.372;2022-12-31T01:34:07;145084.19;;;3.65;100.00
6938;BME280;40040;42.706;23.372;2022-12-31T01:36:35;145084.19;;;3.65;100.00
6938;BME280;40040;42.706;23.372;2022-12-31T01:39:04;145025.31;;;3.41;100.00
6938;BME280;40040;42.706;23.372;2022-12-31T01:41:32;145086.63;;;3.66;100.00
6938;BME280;40040;42.706;23.372;2022-12-31T01:44:01;145100.13;;;3.72;100.00
6938;BME280;40040;42.706;23.372;2022-12-31T01:46:38;145106.28;;;3.74;100.00
6938;BME280;40040;42.706;23.372;2022-12-31T01:49:12;145123.47;;;3.81;100.00
6938;BME280;40040;42.706;23.372;2022-12-31T01:51:42;145074.34;;;3.61;100.00
6938;BME280;40040;42.706;23.372;2022-12-31T01:54:12;145085.44;;;3.66;100.00
6938;BME280;40040;42.706;23.372;2022-12-31T01:56:41;145091.53;;;3.68;100.00
6938;BME280;40040;42.706;23.372;2022-12-31T01:59:09;145105.03;;;3.74;100.00
6938;BME280;40040;42.706;23.372;2022-12-31T02:01:38;145124.69;;;3.82;100.00
6938;BME280;40040;42.706;23.372;2022-12-31T02:04:07;145133.28;;;3.85;100.00
6938;BME280;40040;42.706;23.372;2022-12-31T02:06:39;145125.88;;;3.82;100.00
6938;BME280;40040;42.706;23.372;2022-12-31T02:09:07;145135.72;;;3.86;100.00
6938;BME280;40040;42.706;23.372;2022-12-31T02:11:34;145145.56;;;3.90;100.00
6938;BME280;40040;42.706;23.372;2022-12-31T02:14:03;145130.81;;;3.84;100.00
6938;BME280;40040;42.706;23.372;2022-12-31T02:16:37;145155.34;;;3.94;100.00
6938;BME280;40040;42.706;23.372;2022-12-31T02:19:16;145156.56;;;3.95;100.00
6938;BME280;40040;42.706;23.372;2022-12-31T02:21:58;145117.31;;;3.79;100.00
6938;BME280;40040;42.706;23.372;2022-12-31T02:25:05;145125.88;;;3.82;100.00
6938;BME280;40040;42.706;23.372;2022-12-31T02:27:44;145170.09;;;4.00;100.00
6938;BME280;40040;42.706;23.372;2022-12-31T02:30:16;145165.16;;;3.98;100.00
6938;BME280;40040;42.706;23.372;2022-12-31T02:32:52;145152.91;;;3.93;100.00
6938;BME280;40040;42.706;23.372;2022-12-31T02:35:24;145124.69;;;3.82;100.00
6938;BME280;40040;42.706;23.372;2022-12-31T02:37:58;145087.84;;;3.67;100.00
6938;BME280;40040;42.706;23.372;2022-12-31T02:40:27;145098.94;;;3.71;100.00
6938;BME280;40040;42.706;23.372;2022-12-31T02:42:54;145096.44;;;3.70;100.00
6938;BME280;40040;42.706;23.372;2022-12-31T02:45:26;145065.78;;;3.58;100.00
6938;BME280;40040;42.706;23.372;2022-12-31T02:48:05;145074.34;;;3.61;100.00
6938;BME280;40040;42.706;23.372;2022-12-31T02:50:40;145116.09;;;3.78;100.00
6938;BME280;40040;42.706;23.372;2022-12-31T02:53:29;145108.72;;;3.75;100.00
6938;BME280;40040;42.706;23.372;2022-12-31T02:56:02;145128.38;;;3.83;100.00
6938;BME280;40040;42.706;23.372;2022-12-31T02:58:34;145102.59;;;3.73;100.00
6938;BME280;40040;42.706;23.372;2022-12-31T03:01:27;145113.63;;;3.77;100.00
6938;BME280;40040;42.706;23.372;2022-12-31T03:04:13;145113.63;;;3.77;100.00
6938;BME280;40040;42.706;23.372;2022-12-31T03:07:02;145116.09;;;3.78;100.00
6938;BME280;40040;42.706;23.372;2022-12-31T03:09:30;145120.97;;;3.80;100.00
6938;BME280;40040;42.706;23.372;2022-12-31T03:11:57;145135.72;;;3.86;100.00
6938;BME280;40040;42.706;23.372;2022-12-31T03:14:42;145118.53;;;3.79;100.00
6938;BME280;40040;42.706;23.372;2022-12-31T03:17:10;145080.50;;;3.64;100.00
6938;BME280;40040;42.706;23.372;2022-12-31T03:19:37;145046.16;;;3.50;100.00
6938;BME280;40040;42.706;23.372;2022-12-31T03:22:21;145042.50;;;3.48;100.00
6938;BME280;40040;42.706;23.372;2022-12-31T03:24:56;145027.75;;;3.42;100.00
6938;BME280;40040;42.706;23.372;2022-12-31T03:27:41;145051.06;;;3.52;100.00
6938;BME280;40040;42.706;23.372;2022-12-31T03:30:08;145051.06;;;3.52;100.00
6938;BME280;40040;42.706;23.372;2022-12-31T03:32:36;145049.84;;;3.51;100.00
6938;BME280;40040;42.706;23.372;2022-12-31T03:35:04;144994.66;;;3.28;100.00
6938;BME280;40040;42.706;23.372;2022-12-31T03:37:31;145038.81;;;3.47;100.00
6938;BME280;40040;42.706;23.372;2022-12-31T03:39:58;145015.50;;;3.37;100.00
6938;BME280;40040;42.706;23.372;2022-12-31T03:42:24;144984.81;;;3.24;100.00
6938;BME280;40040;42.706;23.372;2022-12-31T03:44:51;145003.22;;;3.32;100.00
6938;BME280;40040;42.706;23.372;2022-12-31T03:47:18;144995.88;;;3.29;100.00
6938;BME280;40040;42.706;23.372;2022-12-31T03:49:46;144978.72;;;3.22;100.00
6938;BME280;40040;42.706;23.372;2022-12-31T03:52:13;144993.41;;;3.28;100.00
6938;BME280;40040;42.706;23.372;2022-12-31T03:54:40;144981.16;;;3.23;100.00
6938;BME280;40040;42.706;23.372;2022-12-31T03:57:06;144982.38;;;3.23;100.00
6938;BME280;40040;42.706;23.372;2022-12-31T03:59:33;144950.47;;;3.10;100.00
6938;BME280;40040;42.706;23.372;2022-12-31T04:02:00;144973.81;;;3.20;100.00
6938;BME280;40040;42.706;23.372;2022-12-31T04:04:27;144981.16;;;3.23;100.00
6938;BME280;40040;42.706;23.372;2022-12-31T04:06:55;144978.72;;;3.22;100.00
6938;BME280;40040;42.706;23.372;2022-12-31T04:09:22;144960.31;;;3.14;100.00
6938;BME280;40040;42.706;23.372;2022-12-31T04:11:49;144929.63;;;3.02;100.00
6938;BME280;40040;42.706;23.372;2022-12-31T04:14:16;144923.53;;;2.99;100.00
6938;BME280;40040;42.706;23.372;2022-12-31T04:16:43;144913.72;;;2.95;100.00
6938;BME280;40040;42.706;23.372;2022-12-31T04:19:10;144913.72;;;2.95;100.00
6938;BME280;40040;42.706;23.372;2022-12-31T04:21:37;144796.06;;;2.47;100.00
6938;BME280;40040;42.706;23.372;2022-12-31T04:24:06;144905.13;;;2.92;100.00
6938;BME280;40040;42.706;23.372;2022-12-31T04:26:33;144851.22;;;2.70;100.00
6938;BME280;40040;42.706;23.372;2022-12-31T04:29:00;144887.97;;;2.85;100.00
6938;BME280;40040;42.706;23.372;2022-12-31T04:31:27;144873.28;;;2.79;100.00
6938;BME280;40040;42.706;23.372;2022-12-31T04:33:54;144874.47;;;2.79;100.00
6938;BME280;40040;42.706;23.372;2022-12-31T04:36:21;144858.56;;;2.73;100.00
6938;BME280;40040;42.706;23.372;2022-12-31T04:38:47;144872.03;;;2.78;100.00
6938;BME280;40040;42.706;23.372;2022-12-31T04:41:15;144876.97;;;2.80;100.00
6938;BME280;40040;42.706;23.372;2022-12-31T04:43:44;144875.72;;;2.80;100.00
6938;BME280;40040;42.706;23.372;2022-12-31T04:46:11;144848.72;;;2.69;100.00
6938;BME280;40040;42.706;23.372;2022-12-31T04:48:38;144860.97;;;2.74;100.00
6938;BME280;40040;42.706;23.372;2022-12-31T04:51:05;144854.88;;;2.71;100.00
6938;BME280;40040;42.706;23.372;2022-12-31T04:53:32;144860.97;;;2.74;100.00
6938;BME280;40040;42.706;23.372;2022-12-31T04:55:59;144826.72;;;2.60;100.00
6938;BME280;40040;42.706;23.372;2022-12-31T04:58:27;144809.56;;;2.53;100.00
6938;BME280;40040;42.706;23.372;2022-12-31T05:00:54;144802.16;;;2.50;100.00
6938;BME280;40040;42.706;23.372;2022-12-31T05:03:21;144791.16;;;2.45;100.00
6938;BME280;40040;42.706;23.372;2022-12-31T05:05:49;144748.25;;;2.27;100.00
6938;BME280;40040;42.706;23.372;2022-12-31T05:08:16;144772.75;;;2.38;100.00
6938;BME280;40040;42.706;23.372;2022-12-31T05:10:46;144721.28;;;2.16;100.00
6938;BME280;40040;42.706;23.372;2022-12-31T05:13:13;144716.38;;;2.14;100.00
6938;BME280;40040;42.706;23.372;2022-12-31T05:15:42;144710.28;;;2.12;100.00
6938;BME280;40040;42.706;23.372;2022-12-31T05:18:08;144663.72;;;1.93;100.00
6938;BME280;40040;42.706;23.372;2022-12-31T05:20:35;144705.38;;;2.10;100.00
6938;BME280;40040;42.706;23.372;2022-12-31T05:23:02;144710.28;;;2.12;100.00
6938;BME280;40040;42.706;23.372;2022-12-31T05:25:29;144720.09;;;2.16;100.00
6938;BME280;40040;42.706;23.372;2022-12-31T05:27:56;144691.88;;;2.04;100.00
6938;BME280;40040;42.706;23.372;2022-12-31T05:30:24;144685.78;;;2.02;100.00
6938;BME280;40040;42.706;23.372;2022-12-31T05:32:52;144683.31;;;2.01;100.00
6938;BME280;40040;42.706;23.372;2022-12-31T05:35:19;144679.66;;;1.99;100.00
6938;BME280;40040;42.706;23.372;2022-12-31T05:37:46;144700.47;;;2.08;100.00
6938;BME280;40040;42.706;23.372;2022-12-31T05:40:12;144671.06;;;1.96;100.00
6938;BME280;40040;42.706;23.372;2022-12-31T05:42:39;144672.31;;;1.96;100.00
6938;BME280;40040;42.706;23.372;2022-12-31T05:45:07;144622.09;;;1.76;100.00
6938;BME280;40040;42.706;23.372;2022-12-31T05:47:37;144655.16;;;1.89;100.00
6938;BME280;40040;42.706;23.372;2022-12-31T05:50:07;144641.69;;;1.84;100.00
6938;BME280;40040;42.706;23.372;2022-12-31T05:52:34;144647.81;;;1.86;100.00
6938;BME280;40040;42.706;23.372;2022-12-31T05:55:00;144664.97;;;1.93;100.00
6938;BME280;40040;42.706;23.372;2022-12-31T05:57:27;144635.56;;;1.81;100.00
6938;BME280;40040;42.706;23.372;2022-12-31T05:59:54;144633.09;;;1.80;100.00
6938;BME280;40040;42.706;23.372;2022-12-31T06:02:21;144629.44;;;1.79;100.00
6938;BME280;40040;42.706;23.372;2022-12-31T06:04:49;144602.47;;;1.68;100.00
6938;BME280;40040;42.706;23.372;2022-12-31T06:07:17;144667.41;;;1.94;100.00
6938;BME280;40040;42.706;23.372;2022-12-31T06:09:44;144688.22;;;2.03;100.00
6938;BME280;40040;42.706;23.372;2022-12-31T06:12:11;144652.69;;;1.88;100.00
6938;BME280;40040;42.706;23.372;2022-12-31T06:14:38;144701.69;;;2.08;100.00
6938;BME280;40040;42.706;23.372;2022-12-31T06:17:04;144700.47;;;2.08;100.00
6938;BME280;40040;42.706;23.372;2022-12-31T06:19:31;144709.03;;;2.11;100.00
6938;BME280;40040;42.706;23.372;2022-12-31T06:21:58;144711.50;;;2.12;100.00
6938;BME280;40040;42.706;23.372;2022-12-31T06:24:26;144715.19;;;2.14;100.00
6938;BME280;40040;42.706;23.372;2022-12-31T06:26:53;144700.47;;;2.08;100.00
6938;BME280;40040;42.706;23.372;2022-12-31T06:29:20;144619.63;;;1.75;100.00
6938;BME280;40040;42.706;23.372;2022-12-31T06:31:47;144677.22;;;1.98;100.00
6938;BME280;40040;42.706;23.372;2022-12-31T06:34:13;144722.53;;;2.17;100.00
6938;BME280;40040;42.706;23.372;2022-12-31T06:36:40;144742.09;;;2.25;100.00
6938;BME280;40040;42.706;23.372;2022-12-31T06:39:07;144753.16;;;2.29;100.00
6938;BME280;40040;42.706;23.372;2022-12-31T06:41:36;144771.56;;;2.37;100.00
6938;BME280;40040;42.706;23.372;2022-12-31T06:44:03;144749.50;;;2.28;100.00
6938;BME280;40040;42.706;23.372;2022-12-31T06:46:30;144772.75;;;2.38;100.00
6938;BME280;40040;42.706;23.372;2022-12-31T06:48:57;144783.81;;;2.42;100.00
6938;BME280;40040;42.706;23.372;2022-12-31T06:51:23;144814.41;;;2.55;100.00
6938;BME280;40040;42.706;23.372;2022-12-31T06:53:50;144811.97;;;2.54;100.00
6938;BME280;40040;42.706;23.372;2022-12-31T06:56:20;144816.88;;;2.56;100.00
6938;BME280;40040;42.706;23.372;2022-12-31T06:58:49;144826.72;;;2.60;100.00
6938;BME280;40040;42.706;23.372;2022-12-31T07:01:35;144836.47;;;2.64;100.00
6938;BME280;40040;42.706;23.372;2022-12-31T07:04:19;144843.88;;;2.67;100.00
6938;BME280;40040;42.706;23.372;2022-12-31T07:06:53;144811.97;;;2.54;100.00
6938;BME280;40040;42.706;23.372;2022-12-31T07:09:31;144826.72;;;2.60;100.00
6938;BME280;40040;42.706;23.372;2022-12-31T07:12:03;144870.81;;;2.78;100.00
6938;BME280;40040;42.706;23.372;2022-12-31T07:14:36;144900.22;;;2.90;100.00
6938;BME280;40040;42.706;23.372;2022-12-31T07:17:18;144885.53;;;2.84;100.00
6938;BME280;40040;42.706;23.372;2022-12-31T07:19:58;144937.03;;;3.05;100.00
6938;BME280;40040;42.706;23.372;2022-12-31T07:22:26;144919.88;;;2.98;100.00
6938;BME280;40040;42.706;23.372;2022-12-31T07:24:54;144971.38;;;3.19;100.00
6938;BME280;40040;42.706;23.372;2022-12-31T07:27:43;144945.63;;;3.08;100.00
6938;BME280;40040;42.706;23.372;2022-12-31T07:30:16;144995.88;;;3.29;100.00
6938;BME280;40040;42.706;23.372;2022-12-31T07:33:14;145011.81;;;3.35;100.00
6938;BME280;40040;42.706;23.372;2022-12-31T07:35:52;145030.22;;;3.43;100.00
6938;BME280;40040;42.706;23.372;2022-12-31T07:38:28;144971.38;;;3.19;100.00
6938;BME280;40040;42.706;23.372;2022-12-31T07:41:05;145029.00;;;3.42;100.00
6938;BME280;40040;42.706;23.372;2022-12-31T07:43:36;145052.31;;;3.52;100.00
6938;BME280;40040;42.706;23.372;2022-12-31T07:46:15;145124.69;;;3.82;100.00
6938;BME280;40040;42.706;23.372;2022-12-31T07:48:44;145098.94;;;3.71;100.00
6938;BME280;40040;42.706;23.372;2022-12-31T07:51:12;145157.81;;;3.95;100.00
6938;BME280;40040;42.706;23.372;2022-12-31T07:53:39;145135.72;;;3.86;100.00
6938;BME280;40040;42.706;23.372;2022-12-31T07:56:07;145198.28;;;4.12;100.00
6938;BME280;40040;42.706;23.372;2022-12-31T07:58:49;145260.91;;;4.37;100.00
6938;BME280;40040;42.706;23.372;2022-12-31T08:01:29;145287.88;;;4.48;100.00
6938;BME280;40040;42.706;23.372;2022-12-31T08:04:02;145332.09;;;4.67;100.00
6938;BME280;40040;42.706;23.372;2022-12-31T08:06:37;145344.38;;;4.72;100.00
6938;BME280;40040;42.706;23.372;2022-12-31T08:09:25;145373.84;;;4.84;100.00
6938;BME280;40040;42.706;23.372;2022-12-31T08:11:56;145445.06;;;5.13;100.00
6938;BME280;40040;42.706;23.372;2022-12-31T08:14:23;145475.78;;;5.25;100.00
6938;BME280;40040;42.706;23.372;2022-12-31T08:16:53;145511.44;;;5.40;100.00
6938;BME280;40040;42.706;23.372;2022-12-31T08:19:23;145547.03;;;5.54;100.00
6938;BME280;40040;42.706;23.372;2022-12-31T08:22:06;145558.13;;;5.59;100.00
6938;BME280;40040;42.706;23.372;2022-12-31T08:24:42;145617.13;;;5.83;100.00
6938;BME280;40040;42.706;23.372;2022-12-31T08:27:20;145622.06;;;5.85;100.00
6938;BME280;40040;42.706;23.372;2022-12-31T08:29:55;145689.66;;;6.13;100.00
6938;BME280;40040;42.706;23.372;2022-12-31T08:32:28;145708.13;;;6.20;100.00
6938;BME280;40040;42.706;23.372;2022-12-31T08:35:02;145754.84;;;6.39;100.00
6938;BME280;40040;42.706;23.372;2022-12-31T08:37:36;145807.69;;;6.61;100.00
6938;BME280;40040;42.706;23.372;2022-12-31T08:40:13;145858.16;;;6.81;100.00
6938;BME280;40040;42.706;23.372;2022-12-31T08:42:51;145804.00;;;6.59;100.00
6938;BME280;40040;42.706;23.372;2022-12-31T08:45:25;145935.59;;;7.13;100.00
6938;BME280;40040;42.706;23.372;2022-12-31T08:48:00;145977.47;;;7.30;100.00
6938;BME280;40040;42.706;23.372;2022-12-31T08:50:29;146015.63;;;7.46;100.00
6938;BME280;40040;42.706;23.372;2022-12-31T08:52:56;146029.16;;;7.51;100.00
6938;BME280;40040;42.706;23.372;2022-12-31T08:55:24;146085.75;;;7.74;100.00
6938;BME280;40040;42.706;23.372;2022-12-31T08:58:05;146072.22;;;7.69;100.00
6938;BME280;40040;42.706;23.372;2022-12-31T09:00:35;146155.94;;;8.03;100.00
6938;BME280;40040;42.706;23.372;2022-12-31T09:03:20;146183.03;;;8.14;100.00
6938;BME280;40040;42.706;23.372;2022-12-31T09:05:55;146222.47;;;8.30;100.00
6938;BME280;40040;42.706;23.372;2022-12-31T09:08:32;146256.94;;;8.44;100.00
6938;BME280;40040;42.706;23.372;2022-12-31T09:11:09;146284.06;;;8.55;100.00
6938;BME280;40040;42.706;23.372;2022-12-31T09:13:58;146281.56;;;8.54;100.00
6938;BME280;40040;42.706;23.372;2022-12-31T09:16:37;146359.19;;;8.86;100.00
6938;BME280;40040;42.706;23.372;2022-12-31T09:19:09;146388.75;;;8.98;100.00
6938;BME280;40040;42.706;23.372;2022-12-31T09:21:36;146439.31;;;9.19;100.00
6938;BME280;40040;42.706;23.372;2022-12-31T09:24:04;146463.97;;;9.29;100.00
6938;BME280;40040;42.706;23.372;2022-12-31T09:26:43;146556.38;;;9.66;100.00
6938;BME280;40040;42.706;23.372;2022-12-31T09:29:19;146615.56;;;9.90;100.00
6938;BME280;40040;42.706;23.372;2022-12-31T09:31:54;146683.47;;;10.18;100.00
6938;BME280;40040;42.706;23.372;2022-12-31T09:34:29;146755.00;;;10.47;100.00
6938;BME280;40040;42.706;23.372;2022-12-31T09:37:02;146808.03;;;10.69;100.00
6938;BME280;40040;42.706;23.372;2022-12-31T09:39:36;146874.69;;;10.96;100.00
6938;BME280;40040;42.706;23.372;2022-12-31T09:42:48;147009.22;;;11.51;100.00
6938;BME280;40040;42.706;23.372;2022-12-31T09:48:39;147161.19;;;12.12;100.00
6938;BME280;40040;42.706;23.372;2022-12-31T09:51:36;147219.25;;;12.36;100.00
6938;BME280;40040;42.706;23.372;2022-12-31T09:54:22;147281.00;;;12.61;100.00
6938;BME280;40040;42.706;23.372;2022-12-31T09:57:12;147251.38;;;12.49;100.00
6938;BME280;40040;42.706;23.372;2022-12-31T09:59:47;147246.41;;;12.47;100.00
6938;BME280;40040;42.706;23.372;2022-12-31T10:02:38;147239.00;;;12.44;100.00
6938;BME280;40040;42.706;23.372;2022-12-31T10:05:25;147214.31;;;12.34;100.00
6938;BME280;40040;42.706;23.372;2022-12-31T10:08:00;147350.22;;;12.89;100.00
6938;BME280;40040;42.706;23.372;2022-12-31T10:10:40;147431.84;;;13.22;96.79
6938;BME280;40040;42.706;23.372;2022-12-31T10:13:33;147470.19;;;13.38;92.91
6938;BME280;40040;42.706;23.372;2022-12-31T10:16:28;147605.00;;;13.93;88.78
6938;BME280;40040;42.706;23.372;2022-12-31T10:19:28;147617.38;;;13.98;86.57
6938;BME280;40040;42.706;23.372;2022-12-31T10:22:05;147612.41;;;13.96;86.39
6938;BME280;40040;42.706;23.372;2022-12-31T10:24:50;147571.56;;;13.79;84.32
6938;BME280;40040;42.706;23.372;2022-12-31T10:27:27;147595.09;;;13.89;84.28
6938;BME280;40040;42.706;23.372;2022-12-31T10:30:07;147632.19;;;14.04;82.98
6938;BME280;40040;42.706;23.372;2022-12-31T10:32:41;147681.69;;;14.24;82.24
6938;BME280;40040;42.706;23.372;2022-12-31T10:35:27;147748.53;;;14.51;82.06
6938;BME280;40040;42.706;23.372;2022-12-31T10:38:03;147814.13;;;14.78;80.87
6938;BME280;40040;42.706;23.372;2022-12-31T10:44:02;147914.44;;;15.18;78.17
6938;BME280;40040;42.706;23.372;2022-12-31T10:46:49;147877.25;;;15.03;77.45
6938;BME280;40040;42.706;23.372;2022-12-31T10:49:45;147889.63;;;15.08;78.62
6938;BME280;40040;42.706;23.372;2022-12-31T10:52:35;147968.94;;;15.40;77.13
6938;BME280;40040;42.706;23.372;2022-12-31T10:55:31;148071.72;;;15.82;77.14
6938;BME280;40040;42.706;23.372;2022-12-31T11:01:07;148350.59;;;16.95;72.55
6938;BME280;40040;42.706;23.372;2022-12-31T11:12:50;148720.28;;;18.45;65.43
6938;BME280;40040;42.706;23.372;2022-12-31T11:15:37;148797.25;;;18.76;65.29
6938;BME280;40040;42.706;23.372;2022-12-31T11:18:14;148854.34;;;18.99;64.28
6938;BME280;40040;42.706;23.372;2022-12-31T11:20:56;148844.47;;;18.95;63.38
6938;BME280;40040;42.706;23.372;2022-12-31T11:23:34;148864.31;;;19.03;62.90
6938;BME280;40040;42.706;23.372;2022-12-31T11:26:10;148958.72;;;19.41;61.93
6938;BME280;40040;42.706;23.372;2022-12-31T11:28:52;148964.94;;;19.44;60.71
6938;BME280;40040;42.706;23.372;2022-12-31T11:31:40;148917.72;;;19.25;60.69
6938;BME280;40040;42.706;23.372;2022-12-31T11:34:49;148956.25;;;19.40;61.26
6938;BME280;40040;42.706;23.372;2022-12-31T11:37:31;149007.16;;;19.61;59.86
6938;BME280;40040;42.706;23.372;2022-12-31T11:40:14;149022.03;;;19.67;59.01
6938;BME280;40040;42.706;23.372;2022-12-31T11:42:52;149073.00;;;19.87;59.35
6938;BME280;40040;42.706;23.372;2022-12-31T11:45:31;149136.34;;;20.13;58.04
6938;BME280;40040;42.706;23.372;2022-12-31T11:48:13;149158.78;;;20.22;57.11
6938;BME280;40040;42.706;23.372;2022-12-31T11:50:50;149167.47;;;20.26;57.00
6938;BME280;40040;42.706;23.372;2022-12-31T11:53:38;149293.00;;;20.76;56.23
6938;BME280;40040;42.706;23.372;2022-12-31T11:56:15;149383.81;;;21.13;54.68
6938;BME280;40040;42.706;23.372;2022-12-31T11:58:46;149381.28;;;21.12;54.61
6938;BME280;40040;42.706;23.372;2022-12-31T12:01:17;149375.09;;;21.09;54.53
6938;BME280;40040;42.706;23.372;2022-12-31T12:03:47;149493.19;;;21.57;52.93
6938;BME280;40040;42.706;23.372;2022-12-31T12:06:16;149506.88;;;21.63;53.39
6938;BME280;40040;42.706;23.372;2022-12-31T12:08:44;149528.03;;;21.71;52.14
6938;BME280;40040;42.706;23.372;2022-12-31T12:11:17;149552.94;;;21.81;52.00
6938;BME280;40040;42.706;23.372;2022-12-31T12:13:44;149582.78;;;21.93;51.88
6938;BME280;40040;42.706;23.372;2022-12-31T12:16:11;149637.56;;;22.15;50.64
6938;BME280;40040;42.706;23.372;2022-12-31T12:18:41;149641.28;;;22.17;50.75
6938;BME280;40040;42.706;23.372;2022-12-31T12:21:13;149727.16;;;22.52;50.27
6938;BME280;40040;42.706;23.372;2022-12-31T12:23:53;149735.91;;;22.55;49.83
6938;BME280;40040;42.706;23.372;2022-12-31T12:26:25;149789.44;;;22.77;49.07
6938;BME280;40040;42.706;23.372;2022-12-31T12:28:52;149809.34;;;22.85;49.08
6938;BME280;40040;42.706;23.372;2022-12-31T12:31:21;149881.53;;;23.14;48.15
6938;BME280;40040;42.706;23.372;2022-12-31T12:33:50;149780.72;;;22.73;47.90
6938;BME280;40040;42.706;23.372;2022-12-31T12:36:19;149692.31;;;22.38;48.24
6938;BME280;40040;42.706;23.372;2022-12-31T12:38:46;149590.28;;;21.96;49.69
6938;BME280;40040;42.706;23.372;2022-12-31T12:41:19;149387.53;;;21.14;50.55
6938;BME280;40040;42.706;23.372;2022-12-31T12:43:48;149319.13;;;20.87;52.70
6938;BME280;40040;42.706;23.372;2022-12-31T12:46:20;149381.28;;;21.12;53.21
6938;BME280;40040;42.706;23.372;2022-12-31T12:48:53;149335.25;;;20.93;52.84
6938;BME280;40040;42.706;23.372;2022-12-31T12:51:31;149396.22;;;21.18;51.87
6938;BME280;40040;42.706;23.372;2022-12-31T12:54:05;149530.56;;;21.72;50.44
6938;BME280;40040;42.706;23.372;2022-12-31T12:56:41;149664.91;;;22.26;49.05
6938;BME280;40040;42.706;23.372;2022-12-31T13:02:29;149839.22;;;22.97;46.16
6938;BME280;40040;42.706;23.372;2022-12-31T13:05:12;149835.47;;;22.95;46.61
6938;BME280;40040;42.706;23.372;2022-12-31T13:07:52;149674.88;;;22.30;47.96
6938;BME280;40040;42.706;23.372;2022-12-31T13:10:32;149750.88;;;22.61;47.68
6938;BME280;40040;42.706;23.372;2022-12-31T13:13:23;149490.75;;;21.56;48.98
6938;BME280;40040;42.706;23.372;2022-12-31T13:15:58;149341.44;;;20.96;50.96
6938;BME280;40040;42.706;23.372;2022-12-31T13:18:38;149356.44;;;21.02;51.73
6938;BME280;40040;42.706;23.372;2022-12-31T13:21:21;149396.22;;;21.18;51.16
6938;BME280;40040;42.706;23.372;2022-12-31T13:23:55;149418.56;;;21.27;51.06
6938;BME280;40040;42.706;23.372;2022-12-31T13:26:27;149429.78;;;21.32;50.60
6938;BME280;40040;42.706;23.372;2022-12-31T13:28:59;149372.59;;;21.08;51.35
6938;BME280;40040;42.706;23.372;2022-12-31T13:31:30;149274.34;;;20.69;51.37
6938;BME280;40040;42.706;23.372;2022-12-31T13:34:03;149164.97;;;20.25;52.74
6938;BME280;40040;42.706;23.372;2022-12-31T13:36:34;148986.06;;;19.52;53.92
6938;BME280;40040;42.706;23.372;2022-12-31T13:39:12;148912.75;;;19.23;55.41
6938;BME280;40040;42.706;23.372;2022-12-31T13:41:44;148782.38;;;18.70;57.49